Time;durP1;ratioP1;P1;durP2;ratioP2;P2;SDS_P1;SDS_P2;PMS_P1;PMS_P2;Temp;Humidity;BMP_temperature;BMP_pressure;BME280_temperature;BME280_humidity;BME280_pressure;Samples;Min_cycle;Max_cycle;Signal;HPM_P1;HPM_P2
2021/11/24 00:02:21;;;;;;;22.33;15.80;;;7.70;99.90;;;;;;5034675;28;20670;-69
2021/11/24 00:04:47;;;;;;;20.47;15.43;;;7.80;99.90;;;;;;5021070;28;20208;-69
2021/11/24 00:07:12;;;;;;;23.70;16.40;;;7.80;99.90;;;;;;5014489;28;20172;-69
2021/11/24 00:09:38;;;;;;;26.00;17.00;;;7.80;99.90;;;;;;5014579;28;20179;-70
2021/11/24 00:12:04;;;;;;;27.30;16.40;;;7.70;99.90;;;;;;5014209;28;20179;-69
2021/11/24 00:14:30;;;;;;;23.50;16.20;;;7.70;99.90;;;;;;5015409;28;20195;-69
2021/11/24 00:16:56;;;;;;;23.57;14.50;;;7.70;99.90;;;;;;5013779;28;20604;-69
2021/11/24 00:19:21;;;;;;;24.47;16.47;;;7.70;99.90;;;;;;5014666;28;20442;-70
2021/11/24 00:21:47;;;;;;;28.90;16.80;;;7.70;99.90;;;;;;5015049;28;20176;-69
2021/11/24 00:24:13;;;;;;;22.90;15.33;;;7.70;99.90;;;;;;5013899;28;20266;-69
2021/11/24 00:26:38;;;;;;;26.67;16.53;;;7.80;99.90;;;;;;5014783;28;20180;-69
2021/11/24 00:29:05;;;;;;;26.20;15.40;;;7.70;99.90;;;;;;5013996;28;20211;-69
2021/11/24 00:31:31;;;;;;;26.67;17.30;;;7.70;99.90;;;;;;5013817;28;20547;-69
2021/11/24 00:33:56;;;;;;;28.50;16.77;;;7.70;99.90;;;;;;5013928;28;20426;-70
2021/11/24 00:36:22;;;;;;;27.90;16.60;;;7.70;99.90;;;;;;5015035;28;20187;-69
2021/11/24 00:38:48;;;;;;;28.03;17.60;;;7.70;99.90;;;;;;5013695;28;20168;-70
2021/11/24 00:41:13;;;;;;;30.50;18.17;;;7.70;99.90;;;;;;5018591;28;20426;-69
2021/11/24 00:43:39;;;;;;;27.13;18.17;;;7.70;99.90;;;;;;5033064;28;20226;-70
2021/11/24 00:46:04;;;;;;;29.97;19.17;;;7.70;99.90;;;;;;5032468;28;20286;-70
2021/11/24 00:48:30;;;;;;;28.90;18.60;;;7.80;99.90;;;;;;5024431;28;20187;-70
2021/11/24 00:50:56;;;;;;;35.77;19.27;;;7.80;99.90;;;;;;5013559;28;20175;-70
2021/11/24 00:53:21;;;;;;;32.13;18.73;;;7.80;99.90;;;;;;5013256;28;20168;-69
2021/11/24 00:55:47;;;;;;;32.73;19.37;;;7.80;99.90;;;;;;5013682;28;20452;-69
2021/11/24 00:58:13;;;;;;;34.37;19.97;;;7.80;99.90;;;;;;5014390;28;20183;-70
2021/11/24 01:00:39;;;;;;;37.27;21.43;;;7.80;99.90;;;;;;5013029;28;20247;-70
2021/11/24 01:03:04;;;;;;;34.10;20.17;;;7.80;99.90;;;;;;5013201;28;20176;-71
2021/11/24 01:05:30;;;;;;;32.23;19.60;;;7.70;99.90;;;;;;5012763;28;20223;-69
2021/11/24 01:07:56;;;;;;;33.60;20.30;;;7.80;99.90;;;;;;5013004;28;20176;-69
2021/11/24 01:10:22;;;;;;;39.63;19.90;;;7.80;99.90;;;;;;5014273;28;20188;-69
2021/11/24 01:12:47;;;;;;;41.67;21.43;;;7.70;99.90;;;;;;5012947;28;20408;-69
2021/11/24 01:15:14;;;;;;;41.73;21.13;;;7.60;99.90;;;;;;5012802;28;20612;-69
2021/11/24 01:17:41;;;;;;;42.50;20.50;;;7.60;99.90;;;;;;5012791;28;20194;-69
2021/11/24 01:20:07;;;;;;;47.00;22.40;;;7.60;99.90;;;;;;5014107;28;20426;-68
2021/11/24 01:22:33;;;;;;;39.13;21.50;;;7.70;99.90;;;;;;5013278;28;20415;-69
2021/11/24 01:24:58;;;;;;;43.53;21.30;;;7.60;99.90;;;;;;5012857;28;20970;-69
2021/11/24 01:27:24;;;;;;;49.60;22.10;;;7.70;99.90;;;;;;5012190;28;20418;-69
2021/11/24 01:29:50;;;;;;;43.73;21.27;;;7.60;99.90;;;;;;5012955;28;21034;-69
2021/11/24 01:32:15;;;;;;;44.60;21.40;;;7.60;99.90;;;;;;5013520;28;20217;-69
2021/11/24 01:34:41;;;;;;;41.90;21.70;;;7.50;99.90;;;;;;5012584;28;20318;-69
2021/11/24 01:37:06;;;;;;;50.67;23.37;;;7.50;99.90;;;;;;4994577;28;20180;-69
2021/11/24 01:39:32;;;;;;;47.40;22.93;;;7.50;99.90;;;;;;5012765;28;20632;-69
2021/11/24 01:41:58;;;;;;;42.53;22.90;;;7.50;99.90;;;;;;5013590;28;20189;-69
2021/11/24 01:44:26;;;;;;;44.40;23.50;;;7.50;99.90;;;;;;5012897;28;20207;-69
2021/11/24 01:46:53;;;;;;;45.57;23.37;;;7.60;99.90;;;;;;5012499;28;20180;-69
2021/11/24 01:49:19;;;;;;;52.13;25.47;;;7.60;99.90;;;;;;5013012;28;20823;-69
2021/11/24 01:51:45;;;;;;;47.00;24.63;;;7.70;99.90;;;;;;5018752;28;20969;-70
2021/11/24 01:54:13;;;;;;;45.13;23.10;;;7.70;99.90;;;;;;5032014;28;20430;-70
2021/11/24 01:56:39;;;;;;;48.17;24.97;;;7.80;99.90;;;;;;5031787;28;20175;-69
2021/11/24 01:59:05;;;;;;;49.37;24.00;;;7.80;99.90;;;;;;5031844;28;20471;-69
2021/11/24 02:01:30;;;;;;;46.80;25.77;;;7.80;99.90;;;;;;5031979;28;20178;-69
2021/11/24 02:03:56;;;;;;;47.40;25.57;;;7.80;99.90;;;;;;5014742;28;20215;-69
2021/11/24 02:06:21;;;;;;;41.80;23.20;;;7.90;99.90;;;;;;5011782;28;20676;-69
2021/11/24 02:08:47;;;;;;;46.70;24.37;;;7.80;99.90;;;;;;5012395;28;20176;-69
2021/11/24 02:11:12;;;;;;;50.50;25.10;;;7.80;99.90;;;;;;5012216;28;20175;-69
2021/11/24 02:13:38;;;;;;;40.20;23.80;;;7.80;99.90;;;;;;5016403;28;20287;-69
2021/11/24 02:16:04;;;;;;;48.37;24.60;;;7.80;99.90;;;;;;5016068;28;20259;-69
2021/11/24 02:18:29;;;;;;;48.10;26.00;;;7.90;99.90;;;;;;5016205;28;20179;-69
2021/11/24 02:20:55;;;;;;;54.03;26.50;;;7.80;99.90;;;;;;5016382;28;20214;-69
2021/11/24 02:23:20;;;;;;;50.53;26.17;;;7.80;99.90;;;;;;5017698;28;20172;-69
2021/11/24 02:25:46;;;;;;;49.80;25.03;;;7.80;99.90;;;;;;4997838;28;20218;-69
2021/11/24 02:28:12;;;;;;;51.13;24.60;;;7.80;99.90;;;;;;5016317;28;20263;-69
2021/11/24 02:30:38;;;;;;;48.90;25.07;;;7.80;99.90;;;;;;5015931;28;20172;-70
2021/11/24 02:33:04;;;;;;;47.83;24.00;;;7.80;99.90;;;;;;5016032;28;20933;-70
2021/11/24 02:35:30;;;;;;;48.60;24.20;;;7.80;99.90;;;;;;5016737;28;20207;-69
2021/11/24 02:37:55;;;;;;;53.37;23.83;;;7.80;99.90;;;;;;4998524;28;20194;-69
2021/11/24 02:40:27;;;;;;;57.57;24.47;;;7.90;99.90;;;;;;5015807;28;20183;-69
2021/11/24 02:42:52;;;;;;;55.00;23.23;;;7.80;99.90;;;;;;5035850;28;20182;-70
2021/11/24 02:45:18;;;;;;;58.40;22.40;;;7.80;99.90;;;;;;5035648;28;20453;-69
2021/11/24 02:47:44;;;;;;;63.60;27.47;;;7.80;99.90;;;;;;5035220;28;20181;-69
2021/11/24 02:50:09;;;;;;;62.07;25.57;;;7.80;99.90;;;;;;5035643;28;20211;-69
2021/11/24 02:52:35;;;;;;;60.80;24.07;;;7.80;99.90;;;;;;5033744;28;20605;-70
2021/11/24 02:55:04;;;;;;;62.80;24.60;;;7.70;99.90;;;;;;5035206;28;20613;-70
2021/11/24 02:57:39;;;;;;;57.13;25.43;;;7.60;99.90;;;;;;5034637;28;20221;-69
2021/11/24 03:00:12;;;;;;;65.27;27.50;;;7.40;99.90;;;;;;5035542;28;20912;-69
2021/11/24 03:02:38;;;;;;;59.30;23.97;;;7.40;99.90;;;;;;5033848;28;20489;-69
2021/11/24 03:05:05;;;;;;;61.87;24.90;;;7.50;99.90;;;;;;5035204;28;20866;-69
2021/11/24 03:07:30;;;;;;;57.53;26.50;;;7.50;99.90;;;;;;5034746;28;20836;-69
2021/11/24 03:09:56;;;;;;;57.67;28.47;;;7.60;99.90;;;;;;5035194;28;20413;-69
2021/11/24 03:12:22;;;;;;;62.97;28.27;;;7.70;99.90;;;;;;5033618;28;20627;-69
2021/11/24 03:14:47;;;;;;;61.17;26.00;;;7.70;99.90;;;;;;5034943;28;20218;-70
2021/11/24 03:17:13;;;;;;;53.00;23.80;;;7.70;99.90;;;;;;5035132;28;20422;-70
2021/11/24 03:19:39;;;;;;;55.53;25.13;;;7.70;99.90;;;;;;5035007;28;20472;-70
2021/11/24 03:22:05;;;;;;;55.63;24.07;;;7.70;99.90;;;;;;5034790;28;20655;-69
2021/11/24 03:24:31;;;;;;;50.73;22.27;;;7.70;99.90;;;;;;5032018;28;20698;-69
2021/11/24 03:26:57;;;;;;;48.50;21.50;;;7.70;99.90;;;;;;5035120;28;20183;-70
2021/11/24 03:29:22;;;;;;;48.27;21.80;;;7.70;99.90;;;;;;5034829;28;20398;-70
2021/11/24 03:31:48;;;;;;;45.60;19.10;;;7.80;99.90;;;;;;5034928;28;20167;-70
2021/11/24 03:34:13;;;;;;;39.57;19.30;;;7.70;99.90;;;;;;5032959;28;20195;-70
2021/11/24 03:36:39;;;;;;;44.30;18.00;;;7.80;99.90;;;;;;5034551;28;20238;-70
2021/11/24 03:39:06;;;;;;;41.73;19.33;;;7.70;99.90;;;;;;5034863;28;20167;-69
2021/11/24 03:41:32;;;;;;;46.77;20.73;;;7.80;99.90;;;;;;5017076;28;20175;-69
2021/11/24 03:43:57;;;;;;;45.03;20.83;;;7.80;99.90;;;;;;5034345;28;20480;-70
2021/11/24 03:46:23;;;;;;;64.23;21.40;;;7.70;99.90;;;;;;5032387;28;20453;-68
2021/11/24 03:48:49;;;;;;;47.97;21.60;;;7.80;99.90;;;;;;5034270;28;20206;-69
2021/11/24 03:51:15;;;;;;;57.00;23.27;;;7.80;99.90;;;;;;5012460;28;20168;-69
2021/11/24 03:53:41;;;;;;;52.57;22.10;;;7.80;99.90;;;;;;5028521;28;20463;-70
2021/11/24 03:56:12;;;;;;;59.30;24.43;;;7.80;99.90;;;;;;5032538;28;20413;-69
2021/11/24 03:58:37;;;;;;;54.00;24.73;;;7.80;99.90;;;;;;5018348;28;20523;-70
2021/11/24 04:01:04;;;;;;;63.60;23.13;;;7.80;99.90;;;;;;5014651;28;20919;-70
2021/11/24 04:03:30;;;;;;;55.13;21.93;;;7.80;99.90;;;;;;5014128;28;20793;-69
2021/11/24 04:05:56;;;;;;;59.87;25.57;;;7.80;99.90;;;;;;5014752;28;20530;-70
2021/11/24 04:08:21;;;;;;;50.27;23.57;;;7.80;99.90;;;;;;5014163;28;20490;-69
2021/11/24 04:10:47;;;;;;;66.57;24.83;;;7.80;99.90;;;;;;5014196;28;20624;-69
2021/11/24 04:13:13;;;;;;;61.13;24.37;;;7.80;99.90;;;;;;5013851;28;20176;-69
2021/11/24 04:15:39;;;;;;;66.57;24.27;;;7.80;99.90;;;;;;5013278;28;20427;-69
2021/11/24 04:18:04;;;;;;;63.03;25.50;;;7.80;99.90;;;;;;5015263;28;20180;-70
2021/11/24 04:20:30;;;;;;;65.30;24.33;;;7.80;99.90;;;;;;5013873;28;20473;-70
2021/11/24 04:22:56;;;;;;;72.37;25.70;;;7.70;99.90;;;;;;5013802;28;20176;-69
2021/11/24 04:25:22;;;;;;;70.27;26.33;;;7.70;99.90;;;;;;5013860;28;20210;-69
2021/11/24 04:27:49;;;;;;;70.33;26.60;;;7.60;99.90;;;;;;5015886;28;20423;-69
2021/11/24 04:30:16;;;;;;;69.93;27.60;;;7.50;99.90;;;;;;5014516;28;20835;-70
2021/11/24 04:32:42;;;;;;;71.57;27.27;;;7.40;99.90;;;;;;5014511;28;20491;-69
2021/11/24 04:35:09;;;;;;;67.40;24.57;;;7.40;99.90;;;;;;5014215;28;20871;-70
2021/11/24 04:37:35;;;;;;;65.50;26.90;;;7.50;99.90;;;;;;5014606;28;20176;-69
2021/11/24 04:40:01;;;;;;;66.53;25.10;;;7.50;99.90;;;;;;5014314;28;20414;-70
2021/11/24 04:42:26;;;;;;;56.13;22.50;;;7.60;99.90;;;;;;5030372;28;20433;-70
2021/11/24 04:44:52;;;;;;;61.53;22.83;;;7.60;99.90;;;;;;5034150;28;20206;-69
2021/11/24 04:47:18;;;;;;;65.17;23.17;;;7.60;99.90;;;;;;5040008;28;20167;-69
2021/11/24 04:49:44;;;;;;;48.57;20.80;;;7.60;99.90;;;;;;5047624;28;20416;-69
2021/11/24 04:52:10;;;;;;;59.83;22.23;;;7.70;99.90;;;;;;5043862;28;20186;-69
2021/11/24 04:54:35;;;;;;;52.97;21.87;;;7.50;99.90;;;;;;5046504;28;20203;-70
2021/11/24 04:57:01;;;;;;;38.23;18.10;;;7.40;99.90;;;;;;5045055;28;20467;-70
2021/11/24 04:59:26;;;;;;;34.50;17.50;;;7.30;99.90;;;;;;5035837;28;20171;-71
2021/11/24 05:01:52;;;;;;;31.77;16.90;;;7.30;99.90;;;;;;5033021;28;20259;-69
2021/11/24 05:04:21;;;;;;;33.30;18.00;;;7.20;99.90;;;;;;5060050;22;20233;-70
2021/11/24 05:06:46;;;;;;;32.23;16.57;;;7.20;99.90;;;;;;5063866;28;20189;-70
2021/11/24 05:09:12;;;;;;;34.27;17.47;;;7.30;99.90;;;;;;5053005;28;20891;-69
2021/11/24 05:11:40;;;;;;;36.00;19.13;;;7.30;99.90;;;;;;5068006;28;20197;-69
2021/11/24 05:14:07;;;;;;;32.97;17.27;;;7.40;99.90;;;;;;5063400;28;20201;-70
2021/11/24 05:16:34;;;;;;;36.97;18.07;;;7.50;99.90;;;;;;5062007;28;20395;-68
2021/11/24 05:19:01;;;;;;;36.00;17.73;;;7.60;99.90;;;;;;5068556;28;20432;-69
2021/11/24 05:23:52;;;;;;;36.23;17.77;;;7.60;99.90;;;;;;5062545;28;20800;-69
2021/11/24 05:26:18;;;;;;;39.80;17.27;;;7.70;99.90;;;;;;5051803;28;20269;-69
2021/11/24 05:28:46;;;;;;;31.67;17.37;;;7.70;99.90;;;;;;5052906;28;20265;-70
2021/11/24 05:31:12;;;;;;;27.90;16.73;;;7.70;99.90;;;;;;5051893;28;20412;-70
2021/11/24 05:33:37;;;;;;;26.90;15.60;;;7.70;99.90;;;;;;5052990;28;20405;-70
2021/11/24 05:36:06;;;;;;;26.10;15.23;;;7.60;99.90;;;;;;5051353;28;20686;-70
2021/11/24 05:38:32;;;;;;;26.10;15.27;;;7.60;99.90;;;;;;5052053;28;20257;-70
2021/11/24 05:40:59;;;;;;;25.97;15.43;;;7.60;99.90;;;;;;5050791;28;20425;-70
2021/11/24 05:43:27;;;;;;;22.37;13.80;;;7.60;99.90;;;;;;5052135;28;20773;-70
2021/11/24 05:48:19;;;;;;;23.40;14.80;;;7.70;99.90;;;;;;5051897;28;20440;-69
2021/11/24 05:50:47;;;;;;;29.13;16.60;;;7.80;99.90;;;;;;5052097;28;20243;-71
2021/11/24 05:53:16;;;;;;;29.53;15.10;;;7.80;99.90;;;;;;5051174;28;20412;-70
2021/11/24 05:55:42;;;;;;;26.37;14.10;;;7.80;99.90;;;;;;5052969;28;20523;-69
2021/11/24 05:58:08;;;;;;;25.37;14.87;;;7.80;99.90;;;;;;5052205;28;20420;-69
2021/11/24 06:00:34;;;;;;;27.40;15.40;;;7.60;99.90;;;;;;5052414;28;20440;-69
2021/11/24 06:03:00;;;;;;;26.90;14.33;;;7.60;99.90;;;;;;5052010;28;20408;-70
2021/11/24 06:05:26;;;;;;;25.27;15.20;;;7.50;99.90;;;;;;5052147;28;20472;-69
2021/11/24 06:07:51;;;;;;;24.07;13.93;;;7.50;99.90;;;;;;5064783;28;20180;-70
2021/11/24 06:10:17;;;;;;;27.30;15.90;;;7.50;99.90;;;;;;5063518;28;20177;-69
2021/11/24 06:12:42;;;;;;;27.40;14.70;;;7.50;99.90;;;;;;5068208;28;20235;-69
2021/11/24 06:15:14;;;;;;;29.60;16.87;;;7.60;99.90;;;;;;5067393;28;20272;-70
2021/11/24 06:17:40;;;;;;;27.10;16.27;;;7.60;99.90;;;;;;5058422;28;20179;-70
2021/11/24 06:20:06;;;;;;;32.43;16.70;;;7.60;99.90;;;;;;5066233;28;20998;-70
2021/11/24 06:22:31;;;;;;;33.37;18.10;;;7.70;99.90;;;;;;5068622;28;20182;-70
2021/11/24 06:24:57;;;;;;;29.87;16.93;;;7.70;99.90;;;;;;5067895;28;20524;-70
2021/11/24 06:27:23;;;;;;;36.47;17.63;;;7.80;99.90;;;;;;5068735;28;20170;-69
2021/11/24 06:29:48;;;;;;;32.07;16.97;;;7.80;99.90;;;;;;5062243;28;20185;-69
2021/11/24 06:32:14;;;;;;;28.23;16.90;;;7.80;99.90;;;;;;5057897;28;20178;-69
2021/11/24 06:34:40;;;;;;;33.60;19.37;;;7.90;99.90;;;;;;5065120;28;20280;-69
2021/11/24 06:37:05;;;;;;;36.63;18.27;;;7.90;99.90;;;;;;5065037;28;20621;-68
2021/11/24 06:39:31;;;;;;;34.77;17.83;;;7.90;99.90;;;;;;5066313;28;20188;-69
2021/11/24 06:41:58;;;;;;;35.10;19.00;;;7.90;99.90;;;;;;5064327;28;20209;-69
2021/11/24 06:44:25;;;;;;;35.77;19.20;;;8.00;99.90;;;;;;5069692;28;20198;-69
2021/11/24 06:46:50;;;;;;;33.40;18.50;;;8.00;99.90;;;;;;5061587;28;20424;-69
2021/11/24 06:49:16;;;;;;;32.13;18.13;;;8.00;99.90;;;;;;5071538;28;20423;-69
2021/11/24 06:51:42;;;;;;;33.23;19.40;;;8.00;99.90;;;;;;5066377;28;20428;-69
2021/11/24 06:54:08;;;;;;;38.17;21.20;;;8.00;99.90;;;;;;5070830;28;20197;-68
2021/11/24 06:56:34;;;;;;;29.70;18.07;;;8.10;99.90;;;;;;5064776;28;20165;-68
2021/11/24 06:58:59;;;;;;;33.70;19.13;;;8.10;99.90;;;;;;5068049;28;20420;-71
2021/11/24 07:01:25;;;;;;;34.23;20.17;;;8.10;99.90;;;;;;5074092;28;20174;-69
2021/11/24 07:03:50;;;;;;;32.67;19.00;;;8.10;99.90;;;;;;5065247;28;20598;-68
2021/11/24 07:06:16;;;;;;;32.00;18.40;;;8.10;99.90;;;;;;5071011;28;20220;-69
2021/11/24 07:08:42;;;;;;;34.13;19.73;;;8.10;99.90;;;;;;5061708;28;20192;-69
2021/11/24 07:11:08;;;;;;;34.60;18.33;;;8.10;99.90;;;;;;5070518;28;20239;-69
2021/11/24 07:13:34;;;;;;;26.57;16.00;;;8.10;99.90;;;;;;5058697;28;20428;-68
2021/11/24 07:16:00;;;;;;;28.07;18.70;;;8.20;99.90;;;;;;5050000;28;20238;-68
2021/11/24 07:18:26;;;;;;;23.57;15.63;;;8.20;99.90;;;;;;5050770;28;20232;-69
2021/11/24 07:20:51;;;;;;;29.10;17.43;;;8.30;99.90;;;;;;5051044;28;20463;-68
2021/11/24 07:23:17;;;;;;;26.20;17.20;;;8.20;99.90;;;;;;5052075;28;20213;-68
2021/11/24 07:25:42;;;;;;;30.53;16.43;;;8.20;99.90;;;;;;5061249;28;20224;-69
2021/11/24 07:28:08;;;;;;;28.97;15.57;;;8.10;99.90;;;;;;5064273;28;20178;-69
2021/11/24 07:30:34;;;;;;;29.70;16.93;;;8.10;99.90;;;;;;5071229;28;20644;-69
2021/11/24 07:33:00;;;;;;;28.07;16.33;;;8.10;99.90;;;;;;5070082;28;20201;-69
2021/11/24 07:35:26;;;;;;;26.10;15.80;;;8.10;99.90;;;;;;5066503;28;20443;-69
2021/11/24 07:37:51;;;;;;;26.10;14.60;;;8.20;99.90;;;;;;5067135;28;20189;-69
2021/11/24 07:40:21;;;;;;;26.17;15.37;;;8.20;99.90;;;;;;5062395;28;20412;-69
2021/11/24 07:42:47;;;;;;;27.10;14.63;;;8.20;99.90;;;;;;5070567;28;20640;-69
2021/11/24 07:45:13;;;;;;;26.17;15.87;;;8.20;99.90;;;;;;5068680;28;20982;-69
2021/11/24 07:47:39;;;;;;;27.77;15.77;;;8.20;99.90;;;;;;5069749;28;20420;-70
2021/11/24 07:50:05;;;;;;;19.73;12.00;;;8.20;99.90;;;;;;5070407;28;20419;-70
2021/11/24 07:52:30;;;;;;;23.70;14.20;;;8.20;99.90;;;;;;5070559;28;20523;-70
2021/11/24 07:54:56;;;;;;;28.70;15.63;;;8.20;99.90;;;;;;5060112;28;20458;-69
2021/11/24 07:57:22;;;;;;;22.47;13.00;;;8.10;99.90;;;;;;5064388;28;20182;-69
2021/11/24 07:59:48;;;;;;;30.63;14.90;;;8.20;99.90;;;;;;5069199;28;20185;-74
2021/11/24 08:02:14;;;;;;;23.93;13.50;;;8.20;99.90;;;;;;5065558;28;20174;-70
2021/11/24 08:04:39;;;;;;;24.80;14.23;;;8.20;99.90;;;;;;5066695;28;20468;-69
2021/11/24 08:07:05;;;;;;;25.50;13.40;;;8.20;99.90;;;;;;5063706;28;20494;-71
2021/11/24 08:09:31;;;;;;;21.50;14.03;;;8.30;99.90;;;;;;5066238;28;20647;-70
2021/11/24 08:11:59;;;;;;;22.90;13.13;;;8.30;99.90;;;;;;5060640;28;20660;-71
2021/11/24 08:14:28;;;;;;;24.10;15.00;;;8.30;99.90;;;;;;5069805;28;20459;-70
2021/11/24 08:16:54;;;;;;;26.23;15.23;;;8.40;99.90;;;;;;5064082;28;21045;-70
2021/11/24 08:19:20;;;;;;;23.03;14.70;;;8.40;99.90;;;;;;5060922;28;20413;-71
2021/11/24 08:21:46;;;;;;;28.50;15.90;;;8.40;99.90;;;;;;5050789;28;20507;-70
2021/11/24 08:24:12;;;;;;;26.50;15.00;;;8.40;99.90;;;;;;5052952;28;20484;-70
2021/11/24 08:26:40;;;;;;;24.93;14.07;;;8.40;99.90;;;;;;5050256;28;20555;-70
2021/11/24 08:29:07;;;;;;;27.17;16.33;;;8.40;99.90;;;;;;5069820;28;21078;-69
2021/11/24 08:31:36;;;;;;;31.37;15.80;;;8.40;99.90;;;;;;5074091;28;20401;-70
2021/11/24 08:34:03;;;;;;;24.60;14.37;;;8.40;99.90;;;;;;5073157;28;20407;-68
2021/11/24 08:36:29;;;;;;;22.73;14.30;;;8.40;99.90;;;;;;5072786;28;20423;-71
2021/11/24 08:38:54;;;;;;;26.57;15.33;;;8.40;99.90;;;;;;5072125;28;20492;-70
2021/11/24 08:41:20;;;;;;;29.57;15.80;;;8.50;99.90;;;;;;5051844;28;20455;-70
2021/11/24 08:43:46;;;;;;;30.43;16.83;;;8.50;99.90;;;;;;5073190;28;20224;-69
2021/11/24 08:46:11;;;;;;;23.10;13.60;;;8.60;99.90;;;;;;5082510;28;20204;-70
2021/11/24 08:48:37;;;;;;;20.30;12.47;;;8.60;99.90;;;;;;5082813;28;20235;-69
2021/11/24 08:51:04;;;;;;;26.07;15.37;;;8.60;99.90;;;;;;5082110;28;20178;-69
2021/11/24 08:53:30;;;;;;;24.83;14.87;;;8.60;99.90;;;;;;5085207;28;20196;-69
2021/11/24 08:55:56;;;;;;;27.07;15.37;;;8.60;99.90;;;;;;5084582;28;20466;-71
2021/11/24 08:58:21;;;;;;;27.60;12.93;;;8.60;99.90;;;;;;5074303;28;20431;-69
2021/11/24 09:00:47;;;;;;;20.47;13.50;;;8.60;99.90;;;;;;5065820;28;20538;-69
2021/11/24 09:03:13;;;;;;;24.50;14.50;;;8.70;99.90;;;;;;5052599;28;20202;-71
2021/11/24 09:05:39;;;;;;;24.97;13.37;;;8.70;99.90;;;;;;5050722;28;20206;-70
2021/11/24 09:08:05;;;;;;;24.03;13.40;;;8.80;99.90;;;;;;5058746;28;20198;-69
2021/11/24 09:10:31;;;;;;;23.90;14.27;;;8.80;99.90;;;;;;5057904;28;20805;-70
2021/11/24 09:12:58;;;;;;;22.40;12.40;;;8.80;99.90;;;;;;5055516;28;20178;-70
2021/11/24 09:15:25;;;;;;;25.03;13.60;;;8.80;99.90;;;;;;5070626;28;20544;-70
2021/11/24 09:17:51;;;;;;;28.13;15.20;;;8.60;99.90;;;;;;5070584;28;20400;-69
2021/11/24 09:20:17;;;;;;;20.03;12.50;;;8.50;99.90;;;;;;5070106;28;20419;-68
2021/11/24 09:22:45;;;;;;;25.63;13.30;;;8.40;99.90;;;;;;5069868;28;20490;-69
2021/11/24 09:25:13;;;;;;;24.53;13.50;;;8.40;99.90;;;;;;5065060;28;20835;-69
2021/11/24 09:28:08;;;;;;;26.37;14.13;;;8.40;99.90;;;;;;5069012;28;20428;-69
2021/11/24 09:30:34;;;;;;;20.33;12.13;;;8.50;99.90;;;;;;5062386;28;20404;-71
2021/11/24 09:33:00;;;;;;;22.40;12.77;;;8.60;99.90;;;;;;5058637;28;20424;-68
2021/11/24 09:35:26;;;;;;;20.40;13.13;;;8.60;99.90;;;;;;5065602;28;20878;-68
2021/11/24 09:37:51;;;;;;;21.10;12.90;;;8.70;99.90;;;;;;5063537;28;20431;-69
2021/11/24 09:40:17;;;;;;;20.33;13.53;;;8.70;99.90;;;;;;5057492;28;20291;-68
2021/11/24 09:42:45;;;;;;;22.23;12.20;;;8.80;99.90;;;;;;5064128;28;20278;-70
2021/11/24 09:45:15;;;;;;;21.80;13.30;;;8.80;99.90;;;;;;5064862;28;20216;-70
2021/11/24 09:47:45;;;;;;;21.33;11.80;;;8.90;99.90;;;;;;5068382;28;20471;-69
2021/11/24 09:50:11;;;;;;;21.07;12.33;;;9.00;99.90;;;;;;5067861;28;20420;-70
2021/11/24 09:52:37;;;;;;;20.67;11.80;;;9.10;99.90;;;;;;5069510;28;20782;-70
2021/11/24 09:55:05;;;;;;;21.73;13.10;;;9.10;99.90;;;;;;5067421;28;20475;-70
2021/11/24 09:57:31;;;;;;;22.20;12.80;;;9.20;99.90;;;;;;5068525;28;20416;-71
2021/11/24 09:59:57;;;;;;;20.00;12.40;;;9.20;99.90;;;;;;5069105;28;20428;-70
2021/11/24 10:02:23;;;;;;;20.00;11.47;;;9.30;99.90;;;;;;5069225;28;20265;-70
2021/11/24 10:04:49;;;;;;;17.53;10.73;;;9.30;99.90;;;;;;5070448;28;20550;-72
2021/11/24 10:07:20;;;;;;;17.40;11.27;;;9.40;99.90;;;;;;5071810;28;20275;-70
2021/11/24 10:09:46;;;;;;;19.40;10.90;;;9.40;99.90;;;;;;5053130;28;20421;-70
2021/11/24 10:12:12;;;;;;;19.33;11.40;;;9.50;99.90;;;;;;5056931;28;20414;-71
2021/11/24 10:14:40;;;;;;;16.80;11.03;;;9.50;99.90;;;;;;5058114;28;20431;-71
2021/11/24 10:17:10;;;;;;;14.30;9.50;;;9.50;99.90;;;;;;5069397;28;20442;-71
2021/11/24 10:19:36;;;;;;;13.93;9.20;;;9.60;99.90;;;;;;5077074;28;20485;-70
2021/11/24 10:22:04;;;;;;;13.27;7.97;;;9.60;99.90;;;;;;5077497;28;20401;-70
2021/11/24 10:24:36;;;;;;;11.67;7.57;;;9.70;99.90;;;;;;5077428;28;20425;-70
2021/11/24 10:27:04;;;;;;;15.03;8.73;;;9.70;99.90;;;;;;5073397;28;20538;-69
2021/11/24 10:29:30;;;;;;;10.77;8.10;;;9.70;99.90;;;;;;5072241;28;20418;-69
2021/11/24 10:32:02;;;;;;;10.80;7.00;;;9.80;99.90;;;;;;5070949;28;20499;-69
2021/11/24 10:34:27;;;;;;;11.10;7.33;;;9.80;99.90;;;;;;5072263;28;20230;-69
2021/11/24 10:37:07;;;;;;;11.40;7.00;;;9.90;99.90;;;;;;5074295;28;20434;-69
2021/11/24 10:39:51;;;;;;;10.60;6.30;;;9.90;99.90;;;;;;5070813;28;20176;-69
2021/11/24 10:42:23;;;;;;;11.60;6.50;;;9.90;99.90;;;;;;5069146;28;20420;-70
2021/11/24 10:44:55;;;;;;;8.90;6.60;;;9.90;99.90;;;;;;5065489;28;20462;-69
2021/11/24 10:47:27;;;;;;;10.20;6.30;;;9.90;99.90;;;;;;5072077;28;20403;-69
2021/11/24 10:49:58;;;;;;;9.80;6.93;;;9.90;99.90;;;;;;5072320;28;20454;-70
2021/11/24 10:52:28;;;;;;;8.77;6.10;;;10.00;99.90;;;;;;5060474;28;20450;-69
2021/11/24 10:55:03;;;;;;;6.77;5.60;;;10.00;99.90;;;;;;5053612;28;20436;-69
2021/11/24 10:57:31;;;;;;;11.10;6.73;;;10.00;99.90;;;;;;5052682;28;20420;-70
2021/11/24 11:00:06;;;;;;;9.73;7.00;;;10.00;99.90;;;;;;5052586;28;20845;-70
2021/11/24 11:02:37;;;;;;;8.40;5.53;;;10.10;99.90;;;;;;5058787;28;20549;-70
2021/11/24 11:05:13;;;;;;;8.47;6.63;;;10.10;99.90;;;;;;5094822;22;20580;-68
2021/11/24 11:07:54;;;;;;;5.80;4.07;;;10.20;99.90;;;;;;5064367;28;20425;-68
2021/11/24 11:10:25;;;;;;;4.63;3.63;;;10.10;99.90;;;;;;5062688;28;20434;-69
2021/11/24 11:12:58;;;;;;;4.83;3.63;;;10.10;99.90;;;;;;5068571;28;20493;-69
2021/11/24 11:15:25;;;;;;;5.30;3.37;;;10.20;99.90;;;;;;5047748;28;20431;-69
2021/11/24 11:17:57;;;;;;;5.47;2.60;;;10.20;99.90;;;;;;5032267;28;20773;-68
2021/11/24 11:20:26;;;;;;;3.23;2.20;;;10.20;99.90;;;;;;5032280;28;20896;-69
2021/11/24 11:22:55;;;;;;;3.30;2.80;;;10.20;99.90;;;;;;5031957;28;20928;-69
2021/11/24 11:25:20;;;;;;;8.60;2.93;;;10.20;99.90;;;;;;5032687;28;20899;-68
2021/11/24 11:27:47;;;;;;;3.30;2.40;;;10.20;99.90;;;;;;5031637;28;20806;-68
2021/11/24 11:30:13;;;;;;;2.70;2.07;;;10.30;99.90;;;;;;5031916;28;20542;-67
2021/11/24 11:32:38;;;;;;;3.53;2.43;;;10.30;99.90;;;;;;5031309;28;20500;-68
2021/11/24 11:35:05;;;;;;;3.20;2.53;;;10.30;99.90;;;;;;5035542;28;20638;-69
2021/11/24 11:37:31;;;;;;;2.87;2.20;;;10.30;99.90;;;;;;5048493;28;20633;-69
2021/11/24 11:39:56;;;;;;;3.23;2.27;;;10.30;99.90;;;;;;5042992;28;20431;-69
2021/11/24 11:42:23;;;;;;;2.70;2.43;;;10.30;99.90;;;;;;5051358;28;20245;-68
2021/11/24 11:44:49;;;;;;;3.33;2.10;;;10.30;99.90;;;;;;5037315;28;20206;-68
2021/11/24 11:47:14;;;;;;;2.73;1.93;;;10.30;99.90;;;;;;5031229;28;20439;-68
2021/11/24 11:49:42;;;;;;;2.40;2.03;;;10.30;99.90;;;;;;5031717;28;20177;-70
2021/11/24 11:52:12;;;;;;;2.70;2.40;;;10.30;99.90;;;;;;5036172;28;20193;-69
2021/11/24 11:54:37;;;;;;;2.73;2.30;;;10.30;99.90;;;;;;5031491;28;20833;-69
2021/11/24 11:57:14;;;;;;;2.83;1.97;;;10.20;99.90;;;;;;5031856;28;20533;-69
2021/11/24 11:59:40;;;;;;;1.80;1.50;;;10.20;99.90;;;;;;5031274;28;20719;-70
2021/11/24 12:02:10;;;;;;;1.90;1.53;;;10.20;99.10;;;;;;5034797;28;20495;-70
2021/11/24 12:04:47;;;;;;;2.13;1.83;;;10.10;98.90;;;;;;5044565;28;20260;-70
2021/11/24 12:07:20;;;;;;;2.63;1.80;;;10.10;99.40;;;;;;5048607;28;20472;-69
2021/11/24 12:09:57;;;;;;;2.43;2.23;;;10.10;99.50;;;;;;5036473;28;20427;-69
2021/11/24 12:12:33;;;;;;;2.80;1.73;;;10.00;99.80;;;;;;5041966;28;20950;-69
2021/11/24 12:15:16;;;;;;;3.07;2.00;;;10.00;99.60;;;;;;5033022;28;20419;-69
2021/11/24 12:17:56;;;;;;;2.63;1.90;;;10.00;99.90;;;;;;5033738;28;20466;-70
2021/11/24 12:20:23;;;;;;;2.50;2.03;;;10.00;99.90;;;;;;5043099;28;20419;-70
2021/11/24 12:22:50;;;;;;;2.70;2.00;;;10.00;99.60;;;;;;5040713;28;20423;-69
2021/11/24 12:27:53;;;;;;;3.80;1.83;;;10.00;99.00;;;;;;5047921;28;20753;-69
2021/11/24 12:30:58;;;;;;;3.83;1.80;;;10.00;98.80;;;;;;5051418;28;20407;-69
2021/11/24 12:33:39;;;;;;;2.77;2.17;;;9.90;98.80;;;;;;5047356;28;20827;-70
2021/11/24 12:36:20;;;;;;;5.30;2.80;;;9.70;98.90;;;;;;5050627;28;20465;-70
2021/11/24 12:38:48;;;;;;;2.07;1.70;;;9.70;99.30;;;;;;5043610;28;20838;-71
2021/11/24 12:41:24;;;;;;;2.77;1.70;;;9.70;99.10;;;;;;5049803;28;20441;-69
2021/11/24 12:43:58;;;;;;;4.00;1.67;;;9.80;99.00;;;;;;5049277;28;20438;-69
2021/11/24 12:46:29;;;;;;;3.97;2.97;;;9.80;98.90;;;;;;5042393;28;20522;-69